Time;durP1;ratioP1;P1;durP2;ratioP2;P2;SDS_P1;SDS_P2;PMS_P1;PMS_P2;Temp;Humidity;BMP_temperature;BMP_pressure;BME280_temperature;BME280_humidity;BME280_pressure;Samples;Min_cycle;Max_cycle;Signal;HPM_P1;HPM_P2
2023/08/20 00:00:28;;;;;;;17.02;15.40;;;19.10;99.90;;;;;;5033937;28;20029;-79
2023/08/20 00:03:02;;;;;;;15.57;14.07;;;19.10;99.90;;;;;;5032492;28;20526;-79
2023/08/20 00:05:29;;;;;;;16.10;12.88;;;19.00;99.90;;;;;;5033656;28;20021;-79
2023/08/20 00:07:55;;;;;;;13.75;12.45;;;18.90;99.90;;;;;;5033371;28;20033;-79
2023/08/20 00:10:20;;;;;;;12.52;11.23;;;18.80;99.90;;;;;;5032533;28;20083;-79
2023/08/20 00:12:46;;;;;;;13.85;11.77;;;18.80;99.90;;;;;;5033514;28;20040;-79
2023/08/20 00:15:11;;;;;;;14.18;12.80;;;18.70;99.90;;;;;;5029933;28;20033;-77
2023/08/20 00:17:39;;;;;;;13.00;11.80;;;18.60;99.90;;;;;;5021450;28;20376;-78
2023/08/20 00:20:16;;;;;;;12.85;11.70;;;18.60;99.90;;;;;;5033084;28;20030;-77
2023/08/20 00:22:44;;;;;;;14.00;12.35;;;18.60;99.90;;;;;;5033641;28;20029;-78
2023/08/20 00:25:11;;;;;;;13.55;12.25;;;18.60;99.90;;;;;;5033320;28;20067;-78
2023/08/20 00:27:36;;;;;;;14.70;13.20;;;18.60;99.90;;;;;;5032093;28;20040;-77
2023/08/20 00:30:03;;;;;;;14.65;13.10;;;18.60;99.90;;;;;;5032997;28;20025;-77
2023/08/20 00:32:29;;;;;;;15.73;14.23;;;18.60;99.90;;;;;;5033360;28;20159;-79
2023/08/20 00:34:54;;;;;;;15.63;13.90;;;18.60;99.90;;;;;;5033043;28;20104;-79
2023/08/20 00:37:20;;;;;;;18.25;16.35;;;18.70;99.90;;;;;;5032240;28;20499;-79
2023/08/20 00:39:46;;;;;;;18.42;15.75;;;18.70;99.90;;;;;;5033061;28;20017;-77
2023/08/20 00:42:14;;;;;;;22.40;18.08;;;18.70;99.90;;;;;;5031823;28;20028;-79
2023/08/20 00:44:41;;;;;;;19.40;16.63;;;18.70;99.90;;;;;;5030568;28;20475;-77
2023/08/20 00:47:08;;;;;;;21.52;17.65;;;18.70;99.90;;;;;;5031879;28;20112;-77
2023/08/20 00:49:34;;;;;;;22.25;16.67;;;18.70;99.90;;;;;;5032748;28;20029;-78
2023/08/20 00:52:01;;;;;;;18.63;16.58;;;18.60;99.90;;;;;;5033181;28;20032;-77
2023/08/20 00:54:28;;;;;;;18.10;16.17;;;18.50;99.90;;;;;;5031564;28;20028;-78
2023/08/20 00:56:54;;;;;;;17.67;15.77;;;18.50;99.90;;;;;;5031733;28;20384;-78
2023/08/20 00:59:20;;;;;;;17.92;16.00;;;18.50;99.90;;;;;;5031377;28;20048;-77
2023/08/20 01:01:46;;;;;;;18.58;16.63;;;18.50;99.90;;;;;;5030708;28;20026;-78
2023/08/20 01:04:11;;;;;;;19.17;15.98;;;18.50;99.90;;;;;;5031077;28;20071;-78
2023/08/20 01:06:46;;;;;;;18.80;16.05;;;18.40;99.90;;;;;;5032713;28;20100;-78
2023/08/20 01:09:49;;;;;;;18.63;16.73;;;18.40;99.90;;;;;;5031362;28;20032;-78
2023/08/20 01:12:17;;;;;;;17.88;15.98;;;18.40;99.90;;;;;;5032677;28;20034;-78
2023/08/20 01:14:42;;;;;;;18.55;16.55;;;18.40;99.90;;;;;;5033031;28;20067;-77
2023/08/20 01:17:08;;;;;;;18.63;16.60;;;18.40;99.90;;;;;;5019290;28;20049;-77
2023/08/20 01:19:34;;;;;;;17.88;15.98;;;18.40;99.90;;;;;;5031504;28;20044;-78
2023/08/20 01:22:14;;;;;;;16.02;14.32;;;18.30;99.90;;;;;;5032229;28;20029;-78
2023/08/20 01:25:01;;;;;;;16.70;14.93;;;18.30;99.90;;;;;;5032504;28;20113;-77
2023/08/20 01:27:42;;;;;;;18.40;16.02;;;18.30;99.90;;;;;;5021094;28;20418;-79
2023/08/20 01:30:09;;;;;;;18.75;16.50;;;18.20;99.90;;;;;;5032460;28;20026;-77
2023/08/20 01:32:36;;;;;;;16.35;14.63;;;18.20;99.90;;;;;;5032585;28;20028;-78
2023/08/20 01:35:02;;;;;;;16.15;14.45;;;18.20;99.90;;;;;;5032404;28;20072;-77
2023/08/20 01:37:28;;;;;;;16.10;14.48;;;18.30;99.90;;;;;;5032507;28;20033;-76
2023/08/20 01:39:54;;;;;;;16.05;14.23;;;18.20;99.90;;;;;;5032025;28;20384;-77
2023/08/20 01:42:19;;;;;;;15.15;13.65;;;18.20;99.90;;;;;;5031138;28;20028;-76
2023/08/20 01:44:45;;;;;;;15.50;14.00;;;18.20;99.90;;;;;;5030518;28;20024;-77
2023/08/20 01:47:11;;;;;;;17.25;13.45;;;18.20;99.90;;;;;;5031048;28;20422;-78
2023/08/20 01:49:36;;;;;;;16.27;11.70;;;18.10;99.90;;;;;;5030939;28;20028;-78
2023/08/20 01:52:02;;;;;;;12.65;11.45;;;18.00;99.90;;;;;;5032423;28;20031;-78
2023/08/20 01:54:28;;;;;;;17.48;13.25;;;18.00;99.90;;;;;;5031898;28;20083;-79
2023/08/20 01:56:54;;;;;;;11.57;10.48;;;18.00;99.90;;;;;;5036336;28;20030;-78
2023/08/20 01:59:22;;;;;;;13.55;12.25;;;18.00;99.90;;;;;;5035801;28;20129;-76
2023/08/20 02:01:47;;;;;;;11.80;10.50;;;17.90;99.90;;;;;;5034915;28;20036;-77
2023/08/20 02:04:13;;;;;;;13.60;11.43;;;17.90;99.90;;;;;;5032663;28;20411;-77
2023/08/20 02:06:38;;;;;;;12.93;11.57;;;17.90;99.90;;;;;;5035941;28;20028;-77
2023/08/20 02:09:04;;;;;;;14.65;13.15;;;17.90;99.90;;;;;;5034510;28;20108;-77
2023/08/20 02:11:32;;;;;;;14.90;13.38;;;17.90;99.90;;;;;;5035824;28;20013;-77
2023/08/20 02:13:58;;;;;;;14.43;12.45;;;17.90;99.90;;;;;;5035459;28;20076;-77
2023/08/20 02:16:24;;;;;;;14.43;13.00;;;17.90;99.90;;;;;;5034280;28;20061;-76
2023/08/20 02:18:49;;;;;;;14.55;13.00;;;17.90;99.90;;;;;;5035691;28;20029;-78
2023/08/20 02:21:15;;;;;;;15.15;12.25;;;17.90;99.90;;;;;;5035554;28;20018;-77
2023/08/20 02:23:41;;;;;;;15.38;12.40;;;17.90;99.90;;;;;;5035345;28;20104;-78
2023/08/20 02:26:07;;;;;;;15.70;12.35;;;17.90;99.90;;;;;;5034465;28;20060;-78
2023/08/20 02:28:32;;;;;;;13.48;12.18;;;17.80;99.90;;;;;;5050801;28;20025;-76
2023/08/20 02:30:59;;;;;;;12.63;11.35;;;17.80;99.90;;;;;;5029968;28;20088;-77
2023/08/20 02:33:25;;;;;;;13.70;12.20;;;17.70;99.90;;;;;;5035424;28;20713;-78
2023/08/20 02:35:51;;;;;;;13.73;12.35;;;17.70;99.90;;;;;;5034291;28;20034;-77
2023/08/20 02:38:16;;;;;;;13.27;11.90;;;17.70;99.90;;;;;;5034036;28;20045;-76
2023/08/20 02:40:42;;;;;;;16.10;13.07;;;17.70;99.90;;;;;;5041053;28;20018;-77
2023/08/20 02:43:08;;;;;;;12.45;11.25;;;17.70;99.90;;;;;;5033766;28;20037;-76
2023/08/20 02:45:39;;;;;;;12.65;11.45;;;17.70;99.90;;;;;;5035542;28;20480;-77
2023/08/20 02:48:05;;;;;;;12.98;11.75;;;17.70;99.90;;;;;;5035506;28;20033;-78
2023/08/20 02:50:30;;;;;;;17.85;13.88;;;17.60;99.90;;;;;;5035125;28;20391;-76
2023/08/20 02:52:56;;;;;;;15.25;13.43;;;17.70;99.90;;;;;;5035238;28;20029;-78
2023/08/20 02:55:22;;;;;;;17.40;13.95;;;17.70;99.90;;;;;;5035036;28;20487;-76
2023/08/20 02:57:47;;;;;;;16.40;13.95;;;17.70;99.90;;;;;;5034040;28;20025;-77
2023/08/20 03:00:13;;;;;;;15.93;14.15;;;17.70;99.90;;;;;;5034939;28;20415;-77
2023/08/20 03:02:41;;;;;;;16.27;14.00;;;17.60;99.90;;;;;;5034966;28;20029;-78
2023/08/20 03:05:10;;;;;;;19.30;14.00;;;17.60;99.90;;;;;;5034910;28;20036;-78
2023/08/20 03:07:36;;;;;;;19.52;14.23;;;17.60;99.90;;;;;;5033169;28;20028;-77
2023/08/20 03:10:02;;;;;;;15.10;12.82;;;17.60;99.90;;;;;;5034650;28;20021;-79
2023/08/20 03:12:28;;;;;;;17.38;13.70;;;17.60;99.90;;;;;;5034530;28;20014;-79
2023/08/20 03:14:54;;;;;;;15.60;14.00;;;17.50;99.90;;;;;;5034414;28;20018;-77
2023/08/20 03:17:20;;;;;;;14.48;12.98;;;17.50;99.90;;;;;;5034666;28;20060;-77
2023/08/20 03:19:59;;;;;;;14.55;12.95;;;17.60;99.90;;;;;;5034751;28;20033;-79
2023/08/20 03:22:26;;;;;;;14.65;13.15;;;17.50;99.90;;;;;;5033538;28;20029;-79
2023/08/20 03:24:53;;;;;;;16.13;14.38;;;17.50;99.90;;;;;;5034358;28;20211;-79
2023/08/20 03:27:19;;;;;;;16.25;13.98;;;17.50;99.90;;;;;;5034617;28;20379;-77
2023/08/20 03:29:45;;;;;;;15.73;12.63;;;17.50;99.90;;;;;;5034230;28;20025;-78
2023/08/20 03:32:11;;;;;;;12.73;11.50;;;17.50;99.90;;;;;;5034600;28;20016;-77
2023/08/20 03:34:37;;;;;;;12.23;10.90;;;17.40;99.90;;;;;;5034171;28;20025;-77
2023/08/20 03:37:03;;;;;;;12.07;10.73;;;17.40;99.90;;;;;;5033032;28;20041;-78
2023/08/20 03:39:29;;;;;;;9.80;8.82;;;17.40;99.90;;;;;;5034219;28;20029;-79
2023/08/20 03:41:55;;;;;;;9.23;8.40;;;17.30;99.90;;;;;;5034482;28;20029;-77
2023/08/20 03:44:21;;;;;;;5.85;5.45;;;17.30;99.90;;;;;;5033983;28;20021;-79
2023/08/20 03:46:46;;;;;;;6.60;6.05;;;17.20;99.90;;;;;;5034238;28;20018;-80
2023/08/20 03:49:12;;;;;;;9.25;8.38;;;17.20;99.90;;;;;;5033997;28;20033;-77
2023/08/20 03:51:38;;;;;;;9.40;8.40;;;17.20;99.90;;;;;;5034060;28;20028;-79
2023/08/20 03:54:03;;;;;;;10.27;9.32;;;17.20;99.90;;;;;;5033809;28;20479;-77
2023/08/20 03:56:29;;;;;;;12.85;11.52;;;17.20;99.90;;;;;;5034122;28;20403;-79
2023/08/20 03:58:55;;;;;;;11.70;9.73;;;17.20;99.90;;;;;;5033879;28;20029;-77
2023/08/20 04:01:21;;;;;;;9.93;8.70;;;17.20;99.90;;;;;;5034003;28;20022;-79
2023/08/20 04:03:48;;;;;;;9.85;9.05;;;17.20;99.90;;;;;;5033850;28;20471;-77
2023/08/20 04:06:14;;;;;;;10.32;9.32;;;17.30;99.90;;;;;;5033863;28;20017;-77
2023/08/20 04:08:39;;;;;;;10.80;9.70;;;17.30;99.90;;;;;;5033283;28;20032;-79
2023/08/20 04:11:05;;;;;;;11.32;10.15;;;17.30;99.90;;;;;;5033917;28;20029;-79
2023/08/20 04:13:31;;;;;;;10.48;9.57;;;17.40;99.90;;;;;;5033523;28;20092;-80
2023/08/20 04:15:56;;;;;;;11.35;10.27;;;17.40;99.90;;;;;;5032071;28;20041;-77
2023/08/20 04:18:22;;;;;;;12.55;11.27;;;17.50;99.90;;;;;;5031245;28;20022;-79
2023/08/20 04:20:50;;;;;;;12.68;11.48;;;17.60;99.90;;;;;;5032444;28;20029;-77
2023/08/20 04:23:16;;;;;;;12.25;11.05;;;17.60;99.90;;;;;;5033459;28;20123;-77
2023/08/20 04:25:42;;;;;;;13.05;11.65;;;17.70;99.90;;;;;;5033664;28;20120;-79
2023/08/20 04:28:07;;;;;;;14.63;11.98;;;17.70;99.90;;;;;;5033330;28;20025;-78
2023/08/20 04:30:35;;;;;;;13.00;11.52;;;17.80;99.90;;;;;;5033392;28;20048;-79
2023/08/20 04:33:01;;;;;;;11.60;10.10;;;17.90;99.90;;;;;;5033134;28;20025;-78
2023/08/20 04:35:26;;;;;;;11.75;9.90;;;17.90;99.90;;;;;;5033288;28;20025;-78
2023/08/20 04:37:52;;;;;;;10.73;9.73;;;18.00;99.90;;;;;;5033146;28;20113;-78
2023/08/20 04:40:18;;;;;;;11.45;10.25;;;18.00;99.90;;;;;;5032058;28;20501;-77
2023/08/20 04:42:43;;;;;;;13.10;11.18;;;18.10;99.90;;;;;;5033022;28;20021;-79
2023/08/20 04:45:10;;;;;;;16.02;12.20;;;18.20;99.90;;;;;;5032005;28;20056;-77
2023/08/20 04:47:36;;;;;;;12.82;10.98;;;18.30;99.90;;;;;;5030140;28;20041;-78
2023/08/20 04:50:02;;;;;;;18.05;13.10;;;18.40;99.90;;;;;;5021675;28;20087;-78
2023/08/20 04:52:28;;;;;;;12.85;11.55;;;18.50;99.90;;;;;;5032984;28;20018;-78
2023/08/20 04:54:53;;;;;;;9.68;8.57;;;18.60;99.90;;;;;;5033163;28;20036;-78
2023/08/20 04:57:19;;;;;;;9.52;8.73;;;18.60;99.90;;;;;;5032791;28;20033;-78
2023/08/20 04:59:45;;;;;;;10.20;9.20;;;18.70;99.90;;;;;;5031623;28;20064;-78
2023/08/20 05:02:14;;;;;;;10.38;9.38;;;18.80;99.90;;;;;;5031385;28;20025;-78
2023/08/20 05:04:40;;;;;;;9.48;8.48;;;18.90;99.90;;;;;;5032924;28;20029;-79
2023/08/20 05:07:05;;;;;;;9.20;8.32;;;19.00;99.90;;;;;;5031481;28;20021;-78
2023/08/20 05:09:32;;;;;;;11.20;10.20;;;19.10;99.90;;;;;;5032796;28;20089;-80
2023/08/20 05:11:58;;;;;;;10.52;9.52;;;19.10;99.90;;;;;;5032482;28;20083;-78
2023/08/20 05:14:24;;;;;;;12.45;11.25;;;19.10;99.90;;;;;;5031392;28;20025;-80
2023/08/20 05:16:49;;;;;;;14.13;12.60;;;19.20;99.90;;;;;;5031050;28;20399;-78
2023/08/20 05:19:15;;;;;;;12.52;11.32;;;19.30;99.90;;;;;;5032629;28;20544;-81
2023/08/20 05:21:41;;;;;;;15.00;12.75;;;19.40;99.90;;;;;;5032457;28;20030;-81
2023/08/20 05:24:06;;;;;;;14.32;12.88;;;19.60;99.90;;;;;;5031486;28;20156;-81
2023/08/20 05:26:32;;;;;;;14.00;12.60;;;19.70;99.90;;;;;;5024935;28;20399;-80
2023/08/20 05:28:57;;;;;;;15.02;13.52;;;19.80;99.90;;;;;;5032041;28;20095;-79
2023/08/20 05:31:23;;;;;;;14.32;12.80;;;19.90;99.90;;;;;;5027289;28;20096;-82
2023/08/20 05:33:49;;;;;;;16.90;12.65;;;20.10;99.90;;;;;;5028677;28;20029;-80
2023/08/20 05:36:14;;;;;;;16.65;14.07;;;20.20;99.90;;;;;;5036050;28;20120;-80
2023/08/20 05:38:42;;;;;;;16.90;15.13;;;20.40;99.90;;;;;;5036314;28;20490;-81
2023/08/20 05:41:08;;;;;;;18.92;16.88;;;20.60;99.90;;;;;;5032328;28;20021;-81
2023/08/20 05:43:36;;;;;;;21.05;18.23;;;20.70;99.90;;;;;;5038015;28;20025;-79
2023/08/20 05:46:02;;;;;;;34.17;24.27;;;20.90;99.90;;;;;;5036005;28;20060;-80
2023/08/20 05:48:28;;;;;;;31.42;23.63;;;21.10;99.90;;;;;;5030006;28;20033;-80
2023/08/20 05:50:53;;;;;;;32.38;24.83;;;21.20;99.90;;;;;;5034738;28;20528;-77
2023/08/20 05:53:19;;;;;;;37.35;25.75;;;21.30;99.90;;;;;;5029705;28;20026;-79
2023/08/20 05:55:45;;;;;;;37.72;25.90;;;21.50;99.90;;;;;;5036989;28;20033;-79
2023/08/20 05:58:11;;;;;;;38.22;26.02;;;21.60;99.90;;;;;;5036450;28;20437;-78
2023/08/20 06:00:36;;;;;;;37.92;28.45;;;21.80;99.90;;;;;;5026994;28;20483;-78
2023/08/20 06:03:02;;;;;;;37.58;26.27;;;21.90;99.90;;;;;;5027801;28;20059;-81
2023/08/20 06:05:28;;;;;;;34.88;24.08;;;22.00;99.90;;;;;;5025845;28;20014;-81
2023/08/20 06:07:53;;;;;;;34.00;25.83;;;22.10;99.90;;;;;;5029136;28;20028;-78
2023/08/20 06:10:19;;;;;;;28.08;19.23;;;22.30;99.90;;;;;;5036036;28;20026;-78
2023/08/20 06:12:44;;;;;;;31.88;25.33;;;22.50;99.90;;;;;;5039817;28;20103;-78
2023/08/20 06:15:10;;;;;;;32.33;25.77;;;22.70;99.90;;;;;;5052340;28;20808;-79
2023/08/20 06:17:36;;;;;;;29.30;24.52;;;22.90;99.90;;;;;;5043481;28;20071;-79
2023/08/20 06:20:01;;;;;;;33.28;24.85;;;23.00;99.90;;;;;;5050039;28;20025;-79
2023/08/20 06:22:27;;;;;;;30.73;24.80;;;23.10;99.90;;;;;;5045316;28;20419;-79
2023/08/20 06:24:52;;;;;;;30.75;24.73;;;23.30;99.90;;;;;;5050995;28;20497;-79
2023/08/20 06:27:18;;;;;;;37.03;26.85;;;23.40;99.90;;;;;;5049264;28;20112;-78
2023/08/20 06:29:44;;;;;;;33.13;26.85;;;23.40;99.90;;;;;;5048893;28;20104;-78
2023/08/20 06:32:09;;;;;;;31.88;25.77;;;23.50;99.90;;;;;;5023369;28;20030;-78
2023/08/20 06:34:36;;;;;;;32.58;25.75;;;23.60;99.90;;;;;;5027046;28;20021;-79
2023/08/20 06:37:01;;;;;;;32.58;25.15;;;23.70;99.90;;;;;;5038798;28;20068;-79
2023/08/20 06:39:27;;;;;;;39.75;29.15;;;23.90;99.90;;;;;;5054842;28;20750;-79
2023/08/20 06:41:53;;;;;;;31.10;25.42;;;24.00;99.90;;;;;;5032216;28;20479;-79
2023/08/20 06:44:18;;;;;;;36.22;26.80;;;24.10;99.90;;;;;;5044049;28;20116;-79
2023/08/20 06:46:44;;;;;;;37.75;26.30;;;24.30;99.90;;;;;;5037748;28;20025;-79
2023/08/20 06:49:10;;;;;;;32.33;25.73;;;24.40;99.90;;;;;;5036072;28;20026;-79
2023/08/20 06:51:35;;;;;;;35.55;27.25;;;24.50;99.90;;;;;;5036762;28;20387;-79
2023/08/20 06:54:02;;;;;;;34.95;27.98;;;24.70;99.90;;;;;;5034600;28;20029;-79
2023/08/20 06:56:27;;;;;;;37.78;28.67;;;24.80;99.90;;;;;;5045031;28;20033;-80
2023/08/20 06:58:53;;;;;;;36.80;28.70;;;24.90;99.90;;;;;;5043819;28;20453;-80
2023/08/20 07:01:19;;;;;;;36.33;27.00;;;25.00;99.90;;;;;;5024878;28;20057;-79
2023/08/20 07:03:45;;;;;;;35.78;27.33;;;25.00;99.90;;;;;;5032319;28;20033;-80
2023/08/20 07:06:11;;;;;;;29.13;25.70;;;25.20;99.90;;;;;;5043662;28;20025;-80
2023/08/20 07:08:40;;;;;;;35.75;26.08;;;25.20;99.90;;;;;;5041328;28;20028;-79
2023/08/20 07:11:06;;;;;;;35.10;25.67;;;25.40;99.90;;;;;;5046736;28;20052;-80
2023/08/20 07:13:32;;;;;;;36.38;26.27;;;25.50;99.90;;;;;;5032157;28;20026;-80
2023/08/20 07:16:04;;;;;;;33.20;24.38;;;25.50;99.90;;;;;;5025536;28;20045;-79
2023/08/20 07:18:30;;;;;;;27.23;23.17;;;25.60;99.90;;;;;;5033466;28;20045;-80
2023/08/20 07:20:56;;;;;;;34.75;25.25;;;25.80;99.90;;;;;;5034456;28;20029;-80
2023/08/20 07:23:22;;;;;;;29.08;24.67;;;25.80;99.90;;;;;;5033555;28;20022;-80
2023/08/20 07:25:51;;;;;;;27.33;22.13;;;26.00;99.90;;;;;;5034609;28;20032;-79
2023/08/20 07:28:26;;;;;;;29.27;21.42;;;26.20;99.90;;;;;;5032884;28;20097;-79
2023/08/20 07:30:52;;;;;;;23.20;20.70;;;26.50;99.90;;;;;;5023534;28;20030;-80
2023/08/20 07:33:18;;;;;;;26.95;22.33;;;26.60;99.90;;;;;;5027489;28;20040;-80
2023/08/20 07:35:43;;;;;;;28.25;21.83;;;26.80;99.90;;;;;;5029631;28;20402;-80
2023/08/20 07:38:09;;;;;;;27.23;22.15;;;26.80;99.90;;;;;;5030896;28;20025;-80
2023/08/20 07:40:36;;;;;;;26.90;22.10;;;26.80;99.90;;;;;;5029904;28;20029;-80
2023/08/20 07:43:02;;;;;;;26.13;21.92;;;27.00;99.90;;;;;;5031440;28;20041;-80
2023/08/20 07:45:27;;;;;;;30.58;22.42;;;27.10;99.90;;;;;;5030101;28;20025;-79
2023/08/20 07:47:53;;;;;;;25.95;21.73;;;27.10;99.60;;;;;;5031288;28;20068;-80
2023/08/20 07:50:18;;;;;;;25.50;21.70;;;27.30;98.20;;;;;;5029662;28;20140;-80
2023/08/20 07:52:44;;;;;;;22.42;19.98;;;27.30;96.40;;;;;;5029629;28;20361;-80
2023/08/20 07:55:10;;;;;;;25.52;18.35;;;27.50;97.20;;;;;;5028248;28;20033;-80
2023/08/20 07:57:35;;;;;;;24.63;20.88;;;27.60;94.80;;;;;;5028914;28;20034;-80
2023/08/20 08:00:04;;;;;;;21.65;19.13;;;27.80;91.30;;;;;;5030427;28;20022;-80
2023/08/20 08:02:29;;;;;;;27.35;21.00;;;27.80;87.80;;;;;;5029823;28;20711;-80
2023/08/20 08:04:55;;;;;;;26.50;18.95;;;27.90;88.40;;;;;;5031434;28;20052;-80
2023/08/20 08:07:20;;;;;;;22.10;19.00;;;27.90;88.10;;;;;;5032649;28;20017;-80
2023/08/20 08:09:46;;;;;;;21.88;18.77;;;27.80;84.40;;;;;;5015835;28;20197;-80
2023/08/20 08:12:12;;;;;;;20.83;18.42;;;27.90;87.80;;;;;;5032363;28;20490;-80
2023/08/20 08:14:39;;;;;;;19.20;17.23;;;28.10;86.60;;;;;;5034034;28;20474;-80
2023/08/20 08:17:07;;;;;;;19.08;17.13;;;28.30;85.10;;;;;;5033413;28;20081;-80
2023/08/20 08:19:33;;;;;;;22.85;17.88;;;28.30;85.30;;;;;;5033821;28;20017;-80
2023/08/20 08:21:58;;;;;;;22.70;18.77;;;28.40;84.20;;;;;;5033517;28;20064;-80
2023/08/20 08:24:24;;;;;;;23.08;17.80;;;28.40;81.40;;;;;;5033632;28;20018;-80
2023/08/20 08:26:49;;;;;;;18.65;16.75;;;28.60;83.00;;;;;;5031840;28;20018;-80
2023/08/20 08:29:15;;;;;;;17.52;15.73;;;28.70;82.50;;;;;;5032266;28;20025;-80
2023/08/20 08:31:40;;;;;;;17.10;15.38;;;28.70;80.60;;;;;;5048572;28;20060;-80
2023/08/20 08:34:06;;;;;;;16.88;15.20;;;28.90;78.40;;;;;;5033025;28;20455;-80
2023/08/20 08:36:31;;;;;;;16.75;15.13;;;28.80;75.20;;;;;;5032212;28;20076;-80
2023/08/20 08:38:57;;;;;;;15.52;14.00;;;28.90;75.20;;;;;;5033031;28;20053;-80
2023/08/20 08:41:25;;;;;;;16.25;14.75;;;29.00;73.90;;;;;;5032424;28;20029;-80
2023/08/20 08:43:51;;;;;;;14.68;12.70;;;29.20;75.60;;;;;;5032946;28;20009;-81
2023/08/20 08:46:17;;;;;;;13.50;11.20;;;29.30;71.00;;;;;;5031916;28;20387;-80
2023/08/20 08:48:44;;;;;;;15.30;12.73;;;29.20;65.70;;;;;;5031815;28;20394;-80
2023/08/20 08:51:14;;;;;;;15.98;13.05;;;29.50;67.20;;;;;;5031846;28;20084;-80
2023/08/20 08:53:42;;;;;;;13.27;11.98;;;29.50;67.20;;;;;;5031474;28;20065;-80
2023/08/20 08:56:08;;;;;;;13.55;12.27;;;29.20;68.60;;;;;;5032902;28;20406;-80
2023/08/20 08:58:34;;;;;;;20.17;12.50;;;29.10;67.50;;;;;;5031651;28;20014;-80
2023/08/20 09:01:00;;;;;;;12.25;11.07;;;29.10;67.80;;;;;;5032937;28;20463;-80
2023/08/20 09:03:26;;;;;;;15.32;11.13;;;29.20;65.40;;;;;;5031297;28;20490;-80
2023/08/20 09:05:58;;;;;;;11.80;10.60;;;29.10;65.60;;;;;;5032250;28;20030;-80
2023/08/20 09:08:31;;;;;;;12.73;11.45;;;28.90;66.00;;;;;;5031094;28;20021;-80
2023/08/20 09:10:58;;;;;;;14.30;11.20;;;28.80;67.30;;;;;;5015335;28;20471;-80
2023/08/20 09:13:34;;;;;;;12.02;10.77;;;28.60;66.80;;;;;;5032544;28;20030;-80
2023/08/20 09:16:03;;;;;;;11.10;9.95;;;28.40;68.70;;;;;;5014866;28;20041;-80
2023/08/20 09:18:29;;;;;;;10.20;9.20;;;28.40;69.40;;;;;;5031324;28;20096;-80
2023/08/20 09:20:57;;;;;;;9.88;8.88;;;28.70;69.70;;;;;;5032587;28;20033;-80
2023/08/20 09:23:22;;;;;;;10.43;8.98;;;29.10;70.90;;;;;;5020347;28;20013;-80
2023/08/20 09:25:49;;;;;;;10.75;9.68;;;29.40;67.50;;;;;;5032368;28;20424;-80
2023/08/20 09:28:14;;;;;;;10.77;9.77;;;29.60;64.10;;;;;;5031174;28;20028;-80
2023/08/20 09:30:41;;;;;;;10.18;9.27;;;29.90;64.10;;;;;;5032521;28;20030;-80
2023/08/20 09:33:16;;;;;;;10.55;9.65;;;30.10;62.70;;;;;;5032777;28;20029;-80
2023/08/20 09:35:51;;;;;;;11.35;9.52;;;30.50;62.20;;;;;;5031430;28;20122;-80
2023/08/20 09:38:21;;;;;;;11.52;10.05;;;30.60;61.80;;;;;;5031305;28;20017;-80
2023/08/20 09:40:50;;;;;;;10.52;9.52;;;30.70;60.40;;;;;;5032238;28;20037;-81
2023/08/20 09:43:20;;;;;;;14.25;10.38;;;30.40;60.80;;;;;;5032489;28;20029;-80
2023/08/20 09:45:47;;;;;;;10.85;9.80;;;30.50;60.70;;;;;;5031118;28;20120;-80
2023/08/20 09:48:21;;;;;;;10.13;9.18;;;30.40;60.10;;;;;;5032578;28;20360;-81
2023/08/20 09:50:49;;;;;;;9.80;8.95;;;30.00;59.60;;;;;;5030889;28;20040;-80
2023/08/20 09:53:26;;;;;;;10.68;9.68;;;29.60;60.10;;;;;;5031004;28;20021;-80
2023/08/20 09:55:52;;;;;;;10.70;9.70;;;29.40;62.00;;;;;;5036478;28;20507;-79
2023/08/20 09:58:25;;;;;;;10.65;9.55;;;29.40;62.90;;;;;;5032116;28;20025;-79
2023/08/20 10:00:51;;;;;;;11.32;10.18;;;29.50;62.70;;;;;;5031006;28;21343;-79
2023/08/20 10:03:19;;;;;;;10.43;9.52;;;29.60;63.20;;;;;;5031003;28;20494;-80
2023/08/20 10:05:48;;;;;;;11.45;10.32;;;29.70;62.50;;;;;;5030818;28;20028;-80
2023/08/20 10:08:15;;;;;;;11.00;9.82;;;29.50;62.50;;;;;;5032175;28;20132;-80
2023/08/20 10:10:40;;;;;;;11.07;10.13;;;29.40;61.70;;;;;;5030902;28;20038;-79
2023/08/20 10:13:07;;;;;;;11.15;10.07;;;29.50;62.20;;;;;;5032163;28;20030;-80
2023/08/20 10:15:37;;;;;;;11.35;10.35;;;29.40;62.10;;;;;;5030884;28;20430;-80
2023/08/20 10:18:06;;;;;;;11.65;10.57;;;29.30;62.00;;;;;;5034873;28;20108;-80
2023/08/20 10:20:31;;;;;;;11.18;10.05;;;29.60;63.70;;;;;;5034299;28;20107;-80
2023/08/20 10:23:02;;;;;;;11.25;10.25;;;29.80;63.50;;;;;;5034528;28;20057;-79
2023/08/20 10:25:29;;;;;;;10.80;9.80;;;30.10;62.90;;;;;;5034659;28;20018;-80
2023/08/20 10:28:10;;;;;;;10.65;9.55;;;30.30;60.40;;;;;;5034182;28;20025;-80
2023/08/20 10:30:36;;;;;;;11.98;10.88;;;30.60;59.70;;;;;;5035765;28;20064;-80
2023/08/20 10:33:03;;;;;;;11.20;10.10;;;30.40;59.00;;;;;;5034188;28;20026;-80
2023/08/20 10:35:46;;;;;;;11.95;10.75;;;29.90;59.70;;;;;;5034579;28;20112;-80
2023/08/20 10:38:13;;;;;;;10.63;9.63;;;29.80;61.60;;;;;;5034307;28;20080;-80
2023/08/20 10:40:58;;;;;;;10.88;9.73;;;29.50;61.90;;;;;;5035519;28;20026;-80
2023/08/20 10:43:27;;;;;;;12.10;10.48;;;29.50;62.90;;;;;;5035587;28;20029;-80
2023/08/20 10:46:23;;;;;;;11.07;10.02;;;29.70;63.80;;;;;;5035571;28;20033;-80
2023/08/20 10:48:57;;;;;;;10.60;9.60;;;30.00;61.00;;;;;;5034107;28;20024;-79
2023/08/20 10:51:31;;;;;;;11.48;10.20;;;30.00;59.80;;;;;;5035557;28;20033;-79
2023/08/20 10:54:00;;;;;;;12.63;10.65;;;30.10;60.50;;;;;;5033815;28;20028;-79
2023/08/20 10:56:43;;;;;;;10.73;9.82;;;30.40;61.10;;;;;;5034155;28;20132;-79
2023/08/20 10:59:29;;;;;;;11.38;10.13;;;30.70;60.30;;;;;;5034236;28;20064;-80
2023/08/20 11:01:57;;;;;;;10.65;9.65;;;30.40;59.00;;;;;;5033552;28;20483;-81
2023/08/20 11:04:27;;;;;;;10.75;9.52;;;30.40;58.20;;;;;;5034037;28;20030;-82
2023/08/20 11:06:55;;;;;;;9.80;8.90;;;30.30;57.50;;;;;;5033772;28;20483;-80
2023/08/20 11:09:26;;;;;;;10.20;9.20;;;30.20;58.70;;;;;;5035099;28;20487;-80
2023/08/20 11:11:52;;;;;;;9.93;8.95;;;30.50;57.30;;;;;;5034855;28;20029;-80
2023/08/20 11:14:19;;;;;;;9.57;8.63;;;30.70;57.70;;;;;;5033813;28;20107;-80
2023/08/20 11:16:46;;;;;;;9.80;8.80;;;30.80;56.40;;;;;;5034854;28;20088;-80
2023/08/20 11:19:12;;;;;;;9.70;8.85;;;30.60;56.40;;;;;;5034865;28;20364;-80
2023/08/20 11:21:41;;;;;;;9.70;8.90;;;30.50;57.60;;;;;;5034951;28;20111;-80
2023/08/20 11:24:08;;;;;;;10.23;9.23;;;30.20;58.90;;;;;;5034929;28;20032;-80
2023/08/20 11:26:35;;;;;;;10.68;9.68;;;30.20;59.10;;;;;;5033289;28;20017;-80
2023/08/20 11:29:02;;;;;;;11.13;10.02;;;30.30;59.50;;;;;;5034328;28;20021;-80
2023/08/20 11:31:29;;;;;;;10.23;9.25;;;30.40;60.00;;;;;;5033391;28;20040;-80
2023/08/20 11:33:56;;;;;;;10.60;9.60;;;30.50;59.60;;;;;;5033503;28;20117;-80
2023/08/20 11:36:23;;;;;;;10.40;9.38;;;30.70;57.90;;;;;;5034344;28;20522;-80
2023/08/20 11:38:55;;;;;;;10.48;9.25;;;30.70;57.50;;;;;;5034488;28;20079;-80
2023/08/20 11:41:25;;;;;;;9.48;8.30;;;30.80;58.40;;;;;;5032888;28;20028;-80
2023/08/20 11:43:52;;;;;;;9.07;8.23;;;30.70;57.50;;;;;;5034256;28;20032;-80
2023/08/20 11:46:23;;;;;;;9.13;8.18;;;30.20;57.90;;;;;;5033028;28;20507;-80
2023/08/20 11:49:08;;;;;;;9.33;8.53;;;29.80;57.50;;;;;;5033154;28;20087;-80
2023/08/20 11:52:04;;;;;;;8.90;8.10;;;30.10;59.00;;;;;;5039107;28;20487;-80
2023/08/20 11:54:32;;;;;;;9.52;8.55;;;30.20;58.10;;;;;;5032834;28;20129;-80
2023/08/20 11:57:03;;;;;;;10.45;8.63;;;30.50;59.10;;;;;;5034243;28;20033;-80
2023/08/20 11:59:29;;;;;;;11.60;7.60;;;30.80;59.40;;;;;;5020800;28;20013;-80
2023/08/20 12:02:00;;;;;;;8.02;7.22;;;30.80;54.40;;;;;;5032735;28;20364;-80
2023/08/20 12:04:27;;;;;;;8.65;7.95;;;30.90;54.00;;;;;;5033531;28;20014;-80
2023/08/20 12:07:13;;;;;;;8.20;7.47;;;30.90;54.30;;;;;;5034005;28;20021;-80
2023/08/20 12:09:39;;;;;;;8.88;8.07;;;30.80;54.90;;;;;;5034258;28;20035;-81
2023/08/20 12:12:06;;;;;;;9.25;8.35;;;31.00;56.90;;;;;;5033813;28;20018;-80
2023/08/20 12:14:32;;;;;;;11.95;9.82;;;31.00;56.00;;;;;;5033728;28;20030;-80
2023/08/20 12:16:58;;;;;;;10.82;8.48;;;31.30;55.30;;;;;;5033304;28;20107;-80
2023/08/20 12:19:24;;;;;;;10.93;8.35;;;31.30;53.60;;;;;;5033940;28;20026;-80
2023/08/20 12:21:50;;;;;;;7.82;7.13;;;31.50;53.20;;;;;;5032149;28;20386;-80
2023/08/20 12:24:16;;;;;;;8.82;7.90;;;31.70;54.80;;;;;;5033580;28;20017;-80
2023/08/20 12:26:42;;;;;;;8.25;7.45;;;31.70;53.20;;;;;;5032364;28;20399;-80
2023/08/20 12:29:08;;;;;;;9.52;7.20;;;31.80;53.90;;;;;;5032207;28;20076;-80
2023/08/20 12:31:35;;;;;;;7.13;6.50;;;31.60;53.10;;;;;;5029715;28;20536;-80